sensor_id;sensor_type;location;lat;lon;timestamp;temperature;humidity
10828;DHT22;5467;59.334;13.512;2022-11-20T00:01:28;0.90;99.90
10828;DHT22;5467;59.334;13.512;2022-11-20T00:03:57;0.90;99.90
10828;DHT22;5467;59.334;13.512;2022-11-20T00:06:25;0.90;99.90
10828;DHT22;5467;59.334;13.512;2022-11-20T00:08:54;0.90;99.90
10828;DHT22;5467;59.334;13.512;2022-11-20T00:11:23;0.80;99.90
10828;DHT22;5467;59.334;13.512;2022-11-20T00:13:52;0.80;99.90
10828;DHT22;5467;59.334;13.512;2022-11-20T00:16:21;0.90;99.90
10828;DHT22;5467;59.334;13.512;2022-11-20T00:18:50;0.80;99.90
10828;DHT22;5467;59.334;13.512;2022-11-20T00:21:18;0.80;99.90
10828;DHT22;5467;59.334;13.512;2022-11-20T00:23:46;0.90;99.90
10828;DHT22;5467;59.334;13.512;2022-11-20T00:26:15;0.90;99.90
10828;DHT22;5467;59.334;13.512;2022-11-20T00:28:43;0.90;99.90
10828;DHT22;5467;59.334;13.512;2022-11-20T00:31:11;0.80;99.90
10828;DHT22;5467;59.334;13.512;2022-11-20T00:33:39;0.90;99.90
10828;DHT22;5467;59.334;13.512;2022-11-20T00:36:09;0.90;99.90
10828;DHT22;5467;59.334;13.512;2022-11-20T00:38:37;0.90;99.90
10828;DHT22;5467;59.334;13.512;2022-11-20T00:41:06;0.90;99.90
10828;DHT22;5467;59.334;13.512;2022-11-20T00:43:33;1.00;99.90
10828;DHT22;5467;59.334;13.512;2022-11-20T00:46:04;0.90;99.90
10828;DHT22;5467;59.334;13.512;2022-11-20T00:48:31;1.00;99.90
10828;DHT22;5467;59.334;13.512;2022-11-20T00:50:58;1.00;99.90
10828;DHT22;5467;59.334;13.512;2022-11-20T00:53:27;0.90;99.90
10828;DHT22;5467;59.334;13.512;2022-11-20T00:55:55;0.80;99.90
10828;DHT22;5467;59.334;13.512;2022-11-20T00:58:22;0.80;99.90
10828;DHT22;5467;59.334;13.512;2022-11-20T01:00:50;0.90;99.90
10828;DHT22;5467;59.334;13.512;2022-11-20T01:03:17;0.80;99.90
10828;DHT22;5467;59.334;13.512;2022-11-20T01:05:44;0.90;99.90
10828;DHT22;5467;59.334;13.512;2022-11-20T01:08:11;1.00;99.90
10828;DHT22;5467;59.334;13.512;2022-11-20T01:10:40;1.00;99.90
10828;DHT22;5467;59.334;13.512;2022-11-20T01:13:07;0.90;99.90
10828;DHT22;5467;59.334;13.512;2022-11-20T01:15:51;0.90;99.90
10828;DHT22;5467;59.334;13.512;2022-11-20T01:18:18;0.90;99.90
10828;DHT22;5467;59.334;13.512;2022-11-20T01:20:45;1.00;99.90
10828;DHT22;5467;59.334;13.512;2022-11-20T01:23:12;0.90;99.90
10828;DHT22;5467;59.334;13.512;2022-11-20T01:25:40;0.90;99.90
10828;DHT22;5467;59.334;13.512;2022-11-20T01:28:07;1.00;99.90
10828;DHT22;5467;59.334;13.512;2022-11-20T01:30:34;1.00;99.90
10828;DHT22;5467;59.334;13.512;2022-11-20T01:33:01;1.00;99.90
10828;DHT22;5467;59.334;13.512;2022-11-20T01:35:28;1.00;99.90
10828;DHT22;5467;59.334;13.512;2022-11-20T01:37:55;1.00;99.90
10828;DHT22;5467;59.334;13.512;2022-11-20T01:40:22;0.90;99.90
10828;DHT22;5467;59.334;13.512;2022-11-20T01:43:02;1.00;99.90
10828;DHT22;5467;59.334;13.512;2022-11-20T01:46:12;1.00;99.90
10828;DHT22;5467;59.334;13.512;2022-11-20T01:48:45;0.90;99.90
10828;DHT22;5467;59.334;13.512;2022-11-20T01:51:19;0.80;99.90
10828;DHT22;5467;59.334;13.512;2022-11-20T01:53:46;0.90;99.90
10828;DHT22;5467;59.334;13.512;2022-11-20T01:56:14;0.80;99.90
10828;DHT22;5467;59.334;13.512;2022-11-20T01:58:46;0.80;99.90
10828;DHT22;5467;59.334;13.512;2022-11-20T02:01:15;0.70;99.90
10828;DHT22;5467;59.334;13.512;2022-11-20T02:03:42;0.60;99.90
10828;DHT22;5467;59.334;13.512;2022-11-20T02:06:15;0.50;99.90
10828;DHT22;5467;59.334;13.512;2022-11-20T02:08:43;0.40;99.90
10828;DHT22;5467;59.334;13.512;2022-11-20T02:11:10;0.30;99.90
10828;DHT22;5467;59.334;13.512;2022-11-20T02:13:38;0.30;99.90
10828;DHT22;5467;59.334;13.512;2022-11-20T02:16:16;0.30;99.90
10828;DHT22;5467;59.334;13.512;2022-11-20T02:18:44;0.20;99.90
10828;DHT22;5467;59.334;13.512;2022-11-20T02:24:10;0.30;99.90
10828;DHT22;5467;59.334;13.512;2022-11-20T02:26:42;0.20;99.90
10828;DHT22;5467;59.334;13.512;2022-11-20T02:29:11;0.20;99.90
10828;DHT22;5467;59.334;13.512;2022-11-20T02:31:40;0.20;99.90
10828;DHT22;5467;59.334;13.512;2022-11-20T02:34:08;0.20;99.90
10828;DHT22;5467;59.334;13.512;2022-11-20T02:36:36;0.20;99.90
10828;DHT22;5467;59.334;13.512;2022-11-20T02:39:06;0.20;99.90
10828;DHT22;5467;59.334;13.512;2022-11-20T02:41:35;0.20;99.90
10828;DHT22;5467;59.334;13.512;2022-11-20T02:44:03;0.20;99.90
10828;DHT22;5467;59.334;13.512;2022-11-20T02:46:31;0.10;99.90
10828;DHT22;5467;59.334;13.512;2022-11-20T02:48:58;0.20;99.90
10828;DHT22;5467;59.334;13.512;2022-11-20T02:51:25;0.30;99.90
10828;DHT22;5467;59.334;13.512;2022-11-20T02:53:52;0.20;99.90
10828;DHT22;5467;59.334;13.512;2022-11-20T02:56:20;0.20;99.90
10828;DHT22;5467;59.334;13.512;2022-11-20T02:58:47;0.20;99.90
10828;DHT22;5467;59.334;13.512;2022-11-20T03:01:14;0.10;99.90
10828;DHT22;5467;59.334;13.512;2022-11-20T03:03:41;0.10;99.90
10828;DHT22;5467;59.334;13.512;2022-11-20T03:06:08;0.10;99.90
10828;DHT22;5467;59.334;13.512;2022-11-20T03:08:35;0.10;99.90
10828;DHT22;5467;59.334;13.512;2022-11-20T03:11:04;0.00;99.90
10828;DHT22;5467;59.334;13.512;2022-11-20T03:13:33;0.10;99.90
10828;DHT22;5467;59.334;13.512;2022-11-20T03:16:08;0.00;99.90
10828;DHT22;5467;59.334;13.512;2022-11-20T03:18:35;0.10;99.90
10828;DHT22;5467;59.334;13.512;2022-11-20T03:21:03;0.20;99.90
10828;DHT22;5467;59.334;13.512;2022-11-20T03:23:31;0.20;99.90
10828;DHT22;5467;59.334;13.512;2022-11-20T03:26:09;0.10;99.90
10828;DHT22;5467;59.334;13.512;2022-11-20T03:28:38;0.10;99.90
10828;DHT22;5467;59.334;13.512;2022-11-20T03:31:07;0.10;99.90
10828;DHT22;5467;59.334;13.512;2022-11-20T03:33:33;0.10;99.90
10828;DHT22;5467;59.334;13.512;2022-11-20T03:36:02;-0.10;99.90
10828;DHT22;5467;59.334;13.512;2022-11-20T03:38:30;-0.10;99.90
10828;DHT22;5467;59.334;13.512;2022-11-20T03:41:02;0.00;99.90
10828;DHT22;5467;59.334;13.512;2022-11-20T03:43:29;0.10;99.90
10828;DHT22;5467;59.334;13.512;2022-11-20T03:45:57;0.00;99.90
10828;DHT22;5467;59.334;13.512;2022-11-20T03:48:25;0.00;99.90
10828;DHT22;5467;59.334;13.512;2022-11-20T03:50:52;-0.10;99.90
10828;DHT22;5467;59.334;13.512;2022-11-20T03:53:19;0.10;99.90
10828;DHT22;5467;59.334;13.512;2022-11-20T03:55:50;0.10;99.90
10828;DHT22;5467;59.334;13.512;2022-11-20T03:58:17;0.20;99.90
10828;DHT22;5467;59.334;13.512;2022-11-20T04:00:44;0.10;99.90
10828;DHT22;5467;59.334;13.512;2022-11-20T04:03:13;0.10;99.90
10828;DHT22;5467;59.334;13.512;2022-11-20T04:05:40;0.10;99.90
10828;DHT22;5467;59.334;13.512;2022-11-20T04:08:07;0.30;99.90
10828;DHT22;5467;59.334;13.512;2022-11-20T04:10:34;0.40;99.90
10828;DHT22;5467;59.334;13.512;2022-11-20T04:13:01;0.40;99.90
10828;DHT22;5467;59.334;13.512;2022-11-20T04:15:28;0.40;99.90
10828;DHT22;5467;59.334;13.512;2022-11-20T04:17:55;0.60;99.90
10828;DHT22;5467;59.334;13.512;2022-11-20T04:20:24;0.40;99.90
10828;DHT22;5467;59.334;13.512;2022-11-20T04:22:53;0.40;99.90
10828;DHT22;5467;59.334;13.512;2022-11-20T04:25:20;0.50;99.90
10828;DHT22;5467;59.334;13.512;2022-11-20T04:27:47;0.50;99.90
10828;DHT22;5467;59.334;13.512;2022-11-20T04:30:14;0.60;99.90
10828;DHT22;5467;59.334;13.512;2022-11-20T04:32:41;0.70;99.90
10828;DHT22;5467;59.334;13.512;2022-11-20T04:35:08;0.70;99.90
10828;DHT22;5467;59.334;13.512;2022-11-20T04:37:37;0.60;99.90
10828;DHT22;5467;59.334;13.512;2022-11-20T04:40:05;0.60;99.90
10828;DHT22;5467;59.334;13.512;2022-11-20T04:42:32;0.70;99.90
10828;DHT22;5467;59.334;13.512;2022-11-20T04:44:58;0.80;99.90
10828;DHT22;5467;59.334;13.512;2022-11-20T04:47:25;0.80;99.90
10828;DHT22;5467;59.334;13.512;2022-11-20T04:49:52;0.80;99.90
10828;DHT22;5467;59.334;13.512;2022-11-20T04:52:19;0.80;99.90
10828;DHT22;5467;59.334;13.512;2022-11-20T04:54:48;0.80;99.90
10828;DHT22;5467;59.334;13.512;2022-11-20T04:57:18;0.80;99.90
10828;DHT22;5467;59.334;13.512;2022-11-20T04:59:45;0.70;99.90
10828;DHT22;5467;59.334;13.512;2022-11-20T05:02:12;0.80;99.90
10828;DHT22;5467;59.334;13.512;2022-11-20T05:04:39;0.80;99.90
10828;DHT22;5467;59.334;13.512;2022-11-20T05:07:06;0.90;99.90
10828;DHT22;5467;59.334;13.512;2022-11-20T05:09:33;0.90;99.90
10828;DHT22;5467;59.334;13.512;2022-11-20T05:12:01;0.90;99.90
10828;DHT22;5467;59.334;13.512;2022-11-20T05:14:28;0.90;99.90
10828;DHT22;5467;59.334;13.512;2022-11-20T05:16:55;0.90;99.90
10828;DHT22;5467;59.334;13.512;2022-11-20T05:19:22;0.90;99.90
10828;DHT22;5467;59.334;13.512;2022-11-20T05:21:49;0.80;99.90
10828;DHT22;5467;59.334;13.512;2022-11-20T05:24:16;0.80;99.90
10828;DHT22;5467;59.334;13.512;2022-11-20T05:26:43;0.70;99.90
10828;DHT22;5467;59.334;13.512;2022-11-20T05:29:12;0.80;99.90
10828;DHT22;5467;59.334;13.512;2022-11-20T05:31:40;0.80;99.90
10828;DHT22;5467;59.334;13.512;2022-11-20T05:34:07;0.70;99.90
10828;DHT22;5467;59.334;13.512;2022-11-20T05:36:34;0.60;99.90
10828;DHT22;5467;59.334;13.512;2022-11-20T05:39:01;0.60;99.90
10828;DHT22;5467;59.334;13.512;2022-11-20T05:41:28;0.70;99.90
10828;DHT22;5467;59.334;13.512;2022-11-20T05:43:56;0.70;99.90
10828;DHT22;5467;59.334;13.512;2022-11-20T05:46:25;0.90;99.90
10828;DHT22;5467;59.334;13.512;2022-11-20T05:48:52;0.80;99.90
10828;DHT22;5467;59.334;13.512;2022-11-20T05:51:20;0.90;99.90
10828;DHT22;5467;59.334;13.512;2022-11-20T05:53:47;0.70;99.90
10828;DHT22;5467;59.334;13.512;2022-11-20T05:56:16;0.70;99.90
10828;DHT22;5467;59.334;13.512;2022-11-20T05:58:43;0.70;99.90
10828;DHT22;5467;59.334;13.512;2022-11-20T06:01:12;0.70;99.90
10828;DHT22;5467;59.334;13.512;2022-11-20T06:03:42;0.70;99.90
10828;DHT22;5467;59.334;13.512;2022-11-20T06:06:12;0.80;99.90
10828;DHT22;5467;59.334;13.512;2022-11-20T06:08:39;0.70;99.90
10828;DHT22;5467;59.334;13.512;2022-11-20T06:11:07;0.80;99.90
10828;DHT22;5467;59.334;13.512;2022-11-20T06:13:35;0.70;99.90
10828;DHT22;5467;59.334;13.512;2022-11-20T06:16:02;0.80;99.90
10828;DHT22;5467;59.334;13.512;2022-11-20T06:18:30;0.70;99.90
10828;DHT22;5467;59.334;13.512;2022-11-20T06:21:04;0.70;99.90
10828;DHT22;5467;59.334;13.512;2022-11-20T06:23:32;0.70;99.90
10828;DHT22;5467;59.334;13.512;2022-11-20T06:26:02;0.60;99.90
10828;DHT22;5467;59.334;13.512;2022-11-20T06:28:29;0.80;99.90
10828;DHT22;5467;59.334;13.512;2022-11-20T06:30:56;0.80;99.90
10828;DHT22;5467;59.334;13.512;2022-11-20T06:33:23;0.80;99.90
10828;DHT22;5467;59.334;13.512;2022-11-20T06:35:50;0.80;99.90
10828;DHT22;5467;59.334;13.512;2022-11-20T06:38:19;0.80;99.90
10828;DHT22;5467;59.334;13.512;2022-11-20T06:40:46;0.50;99.90
10828;DHT22;5467;59.334;13.512;2022-11-20T06:43:12;0.70;99.90
10828;DHT22;5467;59.334;13.512;2022-11-20T06:45:39;0.80;99.90
10828;DHT22;5467;59.334;13.512;2022-11-20T06:48:06;0.80;99.90
10828;DHT22;5467;59.334;13.512;2022-11-20T06:50:33;0.90;99.90
10828;DHT22;5467;59.334;13.512;2022-11-20T06:53:01;0.90;99.90
10828;DHT22;5467;59.334;13.512;2022-11-20T06:55:31;0.80;99.90
10828;DHT22;5467;59.334;13.512;2022-11-20T06:57:58;0.90;99.90
10828;DHT22;5467;59.334;13.512;2022-11-20T07:00:25;0.90;99.90
10828;DHT22;5467;59.334;13.512;2022-11-20T07:02:52;0.90;99.90
10828;DHT22;5467;59.334;13.512;2022-11-20T07:05:19;0.90;99.90
10828;DHT22;5467;59.334;13.512;2022-11-20T07:07:46;0.90;99.90
10828;DHT22;5467;59.334;13.512;2022-11-20T07:10:13;0.80;99.90
10828;DHT22;5467;59.334;13.512;2022-11-20T07:12:41;0.70;99.90
10828;DHT22;5467;59.334;13.512;2022-11-20T07:15:08;0.90;99.90
10828;DHT22;5467;59.334;13.512;2022-11-20T07:17:35;0.80;99.90
10828;DHT22;5467;59.334;13.512;2022-11-20T07:20:03;0.80;99.90
10828;DHT22;5467;59.334;13.512;2022-11-20T07:22:30;0.90;99.90
10828;DHT22;5467;59.334;13.512;2022-11-20T07:24:57;0.90;99.90
10828;DHT22;5467;59.334;13.512;2022-11-20T07:27:24;0.90;99.90
10828;DHT22;5467;59.334;13.512;2022-11-20T07:29:52;0.90;99.90
10828;DHT22;5467;59.334;13.512;2022-11-20T07:32:19;0.90;99.90
10828;DHT22;5467;59.334;13.512;2022-11-20T07:34:46;0.90;99.90
10828;DHT22;5467;59.334;13.512;2022-11-20T07:37:13;0.80;99.90
10828;DHT22;5467;59.334;13.512;2022-11-20T07:39:40;0.80;99.90
10828;DHT22;5467;59.334;13.512;2022-11-20T07:42:07;0.70;99.90
10828;DHT22;5467;59.334;13.512;2022-11-20T07:44:35;0.70;99.90
10828;DHT22;5467;59.334;13.512;2022-11-20T07:47:03;0.70;99.90
10828;DHT22;5467;59.334;13.512;2022-11-20T07:49:31;0.80;99.90
10828;DHT22;5467;59.334;13.512;2022-11-20T07:51:58;0.80;99.90
10828;DHT22;5467;59.334;13.512;2022-11-20T07:54:25;0.80;99.90
10828;DHT22;5467;59.334;13.512;2022-11-20T07:56:52;0.80;99.90
10828;DHT22;5467;59.334;13.512;2022-11-20T07:59:20;0.80;99.90
10828;DHT22;5467;59.334;13.512;2022-11-20T08:01:47;0.90;99.90
10828;DHT22;5467;59.334;13.512;2022-11-20T08:04:15;1.00;99.90
10828;DHT22;5467;59.334;13.512;2022-11-20T08:06:42;1.00;99.90
10828;DHT22;5467;59.334;13.512;2022-11-20T08:09:09;1.00;99.90
10828;DHT22;5467;59.334;13.512;2022-11-20T08:11:36;0.90;99.90
10828;DHT22;5467;59.334;13.512;2022-11-20T08:14:20;1.00;99.90
10828;DHT22;5467;59.334;13.512;2022-11-20T08:16:48;0.80;99.90
10828;DHT22;5467;59.334;13.512;2022-11-20T08:19:18;0.90;99.90
10828;DHT22;5467;59.334;13.512;2022-11-20T08:21:45;0.90;99.90
10828;DHT22;5467;59.334;13.512;2022-11-20T08:24:12;0.90;99.90
10828;DHT22;5467;59.334;13.512;2022-11-20T08:26:39;0.80;99.90
10828;DHT22;5467;59.334;13.512;2022-11-20T08:29:07;0.80;99.90
10828;DHT22;5467;59.334;13.512;2022-11-20T08:31:34;0.80;99.90
10828;DHT22;5467;59.334;13.512;2022-11-20T08:34:01;0.80;99.90
10828;DHT22;5467;59.334;13.512;2022-11-20T08:36:33;0.90;99.90
10828;DHT22;5467;59.334;13.512;2022-11-20T08:39:00;0.90;99.90
10828;DHT22;5467;59.334;13.512;2022-11-20T08:41:27;0.80;99.90
10828;DHT22;5467;59.334;13.512;2022-11-20T08:43:59;0.80;99.90
10828;DHT22;5467;59.334;13.512;2022-11-20T08:46:30;0.80;99.90
10828;DHT22;5467;59.334;13.512;2022-11-20T08:48:59;0.80;99.90
10828;DHT22;5467;59.334;13.512;2022-11-20T08:51:26;0.80;99.90
10828;DHT22;5467;59.334;13.512;2022-11-20T08:53:55;0.70;99.90
10828;DHT22;5467;59.334;13.512;2022-11-20T08:56:22;0.70;99.90
10828;DHT22;5467;59.334;13.512;2022-11-20T08:58:50;0.80;99.90
10828;DHT22;5467;59.334;13.512;2022-11-20T09:01:17;0.80;99.90
10828;DHT22;5467;59.334;13.512;2022-11-20T09:03:45;0.90;99.90
10828;DHT22;5467;59.334;13.512;2022-11-20T09:06:13;0.80;99.90
10828;DHT22;5467;59.334;13.512;2022-11-20T09:08:40;0.70;99.90
10828;DHT22;5467;59.334;13.512;2022-11-20T09:11:09;0.70;99.90
10828;DHT22;5467;59.334;13.512;2022-11-20T09:13:36;0.80;99.90
10828;DHT22;5467;59.334;13.512;2022-11-20T09:16:05;0.80;99.90
10828;DHT22;5467;59.334;13.512;2022-11-20T09:18:33;0.80;99.90
10828;DHT22;5467;59.334;13.512;2022-11-20T09:21:03;0.90;99.90
10828;DHT22;5467;59.334;13.512;2022-11-20T09:23:32;0.90;99.90
10828;DHT22;5467;59.334;13.512;2022-11-20T09:26:02;1.00;99.90
10828;DHT22;5467;59.334;13.512;2022-11-20T09:28:31;1.10;99.90
10828;DHT22;5467;59.334;13.512;2022-11-20T09:30:58;1.10;99.90
10828;DHT22;5467;59.334;13.512;2022-11-20T09:33:25;1.00;99.90
10828;DHT22;5467;59.334;13.512;2022-11-20T09:35:52;0.90;99.90
10828;DHT22;5467;59.334;13.512;2022-11-20T09:38:19;1.00;99.90
10828;DHT22;5467;59.334;13.512;2022-11-20T09:40:51;1.10;99.90
10828;DHT22;5467;59.334;13.512;2022-11-20T09:43:24;1.00;99.90
10828;DHT22;5467;59.334;13.512;2022-11-20T09:46:04;1.10;99.90
10828;DHT22;5467;59.334;13.512;2022-11-20T09:48:54;1.10;99.90
10828;DHT22;5467;59.334;13.512;2022-11-20T09:51:35;1.10;99.90
10828;DHT22;5467;59.334;13.512;2022-11-20T09:54:13;1.20;99.90
10828;DHT22;5467;59.334;13.512;2022-11-20T09:56:44;1.20;99.90
10828;DHT22;5467;59.334;13.512;2022-11-20T09:59:25;1.10;99.90
10828;DHT22;5467;59.334;13.512;2022-11-20T10:01:55;1.10;99.90
10828;DHT22;5467;59.334;13.512;2022-11-20T10:04:24;1.20;99.90
10828;DHT22;5467;59.334;13.512;2022-11-20T10:07:00;1.10;99.90
10828;DHT22;5467;59.334;13.512;2022-11-20T10:09:30;1.10;99.90
10828;DHT22;5467;59.334;13.512;2022-11-20T10:12:09;1.20;99.90
10828;DHT22;5467;59.334;13.512;2022-11-20T10:14:50;1.20;99.90
10828;DHT22;5467;59.334;13.512;2022-11-20T10:17:28;1.20;99.90
10828;DHT22;5467;59.334;13.512;2022-11-20T10:20:10;1.20;99.90
10828;DHT22;5467;59.334;13.512;2022-11-20T10:22:50;1.20;99.90
10828;DHT22;5467;59.334;13.512;2022-11-20T10:25:34;1.20;99.90
10828;DHT22;5467;59.334;13.512;2022-11-20T10:28:22;1.20;99.90
10828;DHT22;5467;59.334;13.512;2022-11-20T10:30:56;1.10;99.90
10828;DHT22;5467;59.334;13.512;2022-11-20T10:33:27;1.20;99.90
10828;DHT22;5467;59.334;13.512;2022-11-20T10:36:08;1.30;99.90
10828;DHT22;5467;59.334;13.512;2022-11-20T10:38:41;1.30;99.90
10828;DHT22;5467;59.334;13.512;2022-11-20T10:41:15;1.40;99.90
10828;DHT22;5467;59.334;13.512;2022-11-20T10:44:00;1.50;99.90
10828;DHT22;5467;59.334;13.512;2022-11-20T10:49:52;1.50;99.90
10828;DHT22;5467;59.334;13.512;2022-11-20T10:52:25;1.50;99.90
10828;DHT22;5467;59.334;13.512;2022-11-20T10:55:01;1.50;99.90
10828;DHT22;5467;59.334;13.512;2022-11-20T10:57:46;1.50;99.90
10828;DHT22;5467;59.334;13.512;2022-11-20T11:00:17;1.50;99.90
10828;DHT22;5467;59.334;13.512;2022-11-20T11:02:47;1.50;99.90
10828;DHT22;5467;59.334;13.512;2022-11-20T11:05:27;1.50;99.90
10828;DHT22;5467;59.334;13.512;2022-11-20T11:07:57;1.40;99.90
10828;DHT22;5467;59.334;13.512;2022-11-20T11:10:30;1.30;99.90
10828;DHT22;5467;59.334;13.512;2022-11-20T11:12:59;1.30;99.90
10828;DHT22;5467;59.334;13.512;2022-11-20T11:15:28;1.30;99.90
10828;DHT22;5467;59.334;13.512;2022-11-20T11:17:55;1.30;99.90
10828;DHT22;5467;59.334;13.512;2022-11-20T11:20:25;1.20;99.90
10828;DHT22;5467;59.334;13.512;2022-11-20T11:22:54;1.20;99.90
10828;DHT22;5467;59.334;13.512;2022-11-20T11:25:29;1.20;99.90
10828;DHT22;5467;59.334;13.512;2022-11-20T11:28:02;1.30;99.90
10828;DHT22;5467;59.334;13.512;2022-11-20T11:30:41;1.40;99.90
10828;DHT22;5467;59.334;13.512;2022-11-20T11:33:11;1.40;99.90
10828;DHT22;5467;59.334;13.512;2022-11-20T11:35:45;1.40;99.90
10828;DHT22;5467;59.334;13.512;2022-11-20T11:38:15;1.30;99.90
10828;DHT22;5467;59.334;13.512;2022-11-20T11:40:44;1.20;99.90
10828;DHT22;5467;59.334;13.512;2022-11-20T11:43:19;1.20;99.90
10828;DHT22;5467;59.334;13.512;2022-11-20T11:46:19;1.30;99.90
10828;DHT22;5467;59.334;13.512;2022-11-20T11:48:55;1.20;99.90
10828;DHT22;5467;59.334;13.512;2022-11-20T11:51:32;1.20;99.90
10828;DHT22;5467;59.334;13.512;2022-11-20T11:54:02;1.20;99.90
10828;DHT22;5467;59.334;13.512;2022-11-20T11:56:33;1.20;99.90
10828;DHT22;5467;59.334;13.512;2022-11-20T11:59:04;1.20;99.90
10828;DHT22;5467;59.334;13.512;2022-11-20T12:01:41;1.20;99.90
10828;DHT22;5467;59.334;13.512;2022-11-20T12:04:16;1.20;99.90
10828;DHT22;5467;59.334;13.512;2022-11-20T12:06:50;1.20;99.90
10828;DHT22;5467;59.334;13.512;2022-11-20T12:09:19;1.20;99.90
10828;DHT22;5467;59.334;13.512;2022-11-20T12:11:51;1.30;99.90
10828;DHT22;5467;59.334;13.512;2022-11-20T12:14:25;1.30;99.90
10828;DHT22;5467;59.334;13.512;2022-11-20T12:16:54;1.20;99.90
10828;DHT22;5467;59.334;13.512;2022-11-20T12:19:23;1.20;99.90
10828;DHT22;5467;59.334;13.512;2022-11-20T12:21:57;1.30;99.90
10828;DHT22;5467;59.334;13.512;2022-11-20T12:24:37;1.20;99.90
10828;DHT22;5467;59.334;13.512;2022-11-20T12:30:11;1.10;99.90
10828;DHT22;5467;59.334;13.512;2022-11-20T12:33:01;1.00;99.90
10828;DHT22;5467;59.334;13.512;2022-11-20T12:35:48;1.20;99.90
10828;DHT22;5467;59.334;13.512;2022-11-20T12:41:57;1.00;99.90
10828;DHT22;5467;59.334;13.512;2022-11-20T12:44:58;1.10;99.90
10828;DHT22;5467;59.334;13.512;2022-11-20T12:47:56;1.00;99.90
10828;DHT22;5467;59.334;13.512;2022-11-20T12:50:33;1.00;99.90
10828;DHT22;5467;59.334;13.512;2022-11-20T12:53:04;1.00;99.90
10828;DHT22;5467;59.334;13.512;2022-11-20T12:55:46;1.10;99.90
10828;DHT22;5467;59.334;13.512;2022-11-20T12:58:20;0.90;99.90
10828;DHT22;5467;59.334;13.512;2022-11-20T13:00:54;0.90;99.90
10828;DHT22;5467;59.334;13.512;2022-11-20T13:03:44;0.90;99.90
10828;DHT22;5467;59.334;13.512;2022-11-20T13:06:16;0.80;99.90
10828;DHT22;5467;59.334;13.512;2022-11-20T13:08:48;0.90;99.90
10828;DHT22;5467;59.334;13.512;2022-11-20T13:11:24;0.90;99.90
10828;DHT22;5467;59.334;13.512;2022-11-20T13:14:12;0.90;99.90
10828;DHT22;5467;59.334;13.512;2022-11-20T13:16:46;0.80;99.90
10828;DHT22;5467;59.334;13.512;2022-11-20T13:19:16;0.90;99.90
10828;DHT22;5467;59.334;13.512;2022-11-20T13:21:45;0.80;99.90
10828;DHT22;5467;59.334;13.512;2022-11-20T13:24:23;0.80;99.90
10828;DHT22;5467;59.334;13.512;2022-11-20T13:27:18;0.90;99.90
10828;DHT22;5467;59.334;13.512;2022-11-20T13:29:58;0.90;99.90
10828;DHT22;5467;59.334;13.512;2022-11-20T13:32:26;0.90;99.90
10828;DHT22;5467;59.334;13.512;2022-11-20T13:34:59;0.80;99.90
10828;DHT22;5467;59.334;13.512;2022-11-20T13:37:31;0.80;99.90
10828;DHT22;5467;59.334;13.512;2022-11-20T13:40:21;0.90;99.90
10828;DHT22;5467;59.334;13.512;2022-11-20T13:42:56;0.70;99.90
10828;DHT22;5467;59.334;13.512;2022-11-20T13:45:25;0.60;99.90
10828;DHT22;5467;59.334;13.512;2022-11-20T13:47:53;0.60;99.90
10828;DHT22;5467;59.334;13.512;2022-11-20T13:50:29;0.60;99.90
10828;DHT22;5467;59.334;13.512;2022-11-20T13:53:11;0.50;99.90
10828;DHT22;5467;59.334;13.512;2022-11-20T13:55:46;0.50;99.90
10828;DHT22;5467;59.334;13.512;2022-11-20T13:58:26;0.40;99.90
10828;DHT22;5467;59.334;13.512;2022-11-20T14:01:00;0.50;99.90
10828;DHT22;5467;59.334;13.512;2022-11-20T14:03:30;0.40;99.90
10828;DHT22;5467;59.334;13.512;2022-11-20T14:06:01;0.50;99.90
10828;DHT22;5467;59.334;13.512;2022-11-20T14:08:33;0.40;99.90
10828;DHT22;5467;59.334;13.512;2022-11-20T14:11:06;0.50;99.90
10828;DHT22;5467;59.334;13.512;2022-11-20T14:13:52;0.40;99.90
10828;DHT22;5467;59.334;13.512;2022-11-20T14:16:19;0.30;99.90
10828;DHT22;5467;59.334;13.512;2022-11-20T14:18:46;0.30;99.90
10828;DHT22;5467;59.334;13.512;2022-11-20T14:21:22;0.40;99.90
10828;DHT22;5467;59.334;13.512;2022-11-20T14:23:49;0.40;99.90
10828;DHT22;5467;59.334;13.512;2022-11-20T14:26:18;0.40;99.90
10828;DHT22;5467;59.334;13.512;2022-11-20T14:28:50;0.30;99.90
10828;DHT22;5467;59.334;13.512;2022-11-20T14:31:23;0.20;99.90
10828;DHT22;5467;59.334;13.512;2022-11-20T14:33:51;0.20;99.90
10828;DHT22;5467;59.334;13.512;2022-11-20T14:36:20;0.30;99.90
10828;DHT22;5467;59.334;13.512;2022-11-20T14:38:49;0.20;99.90
10828;DHT22;5467;59.334;13.512;2022-11-20T14:41:18;0.20;99.90
10828;DHT22;5467;59.334;13.512;2022-11-20T14:43:49;0.20;99.90
10828;DHT22;5467;59.334;13.512;2022-11-20T14:46:17;0.10;99.90
10828;DHT22;5467;59.334;13.512;2022-11-20T14:48:47;0.20;99.90
10828;DHT22;5467;59.334;13.512;2022-11-20T14:51:31;0.20;99.90
10828;DHT22;5467;59.334;13.512;2022-11-20T14:54:10;0.20;99.90
10828;DHT22;5467;59.334;13.512;2022-11-20T14:56:38;0.10;99.90
10828;DHT22;5467;59.334;13.512;2022-11-20T14:59:09;0.20;99.90
10828;DHT22;5467;59.334;13.512;2022-11-20T15:01:36;0.20;99.90
10828;DHT22;5467;59.334;13.512;2022-11-20T15:04:09;0.20;99.90
10828;DHT22;5467;59.334;13.512;2022-11-20T15:06:37;0.20;99.90
10828;DHT22;5467;59.334;13.512;2022-11-20T15:09:12;0.10;99.90
10828;DHT22;5467;59.334;13.512;2022-11-20T15:11:53;0.20;99.90
10828;DHT22;5467;59.334;13.512;2022-11-20T15:14:23;0.10;99.90
10828;DHT22;5467;59.334;13.512;2022-11-20T15:16:55;0.20;99.90
10828;DHT22;5467;59.334;13.512;2022-11-20T15:19:26;0.10;99.90
10828;DHT22;5467;59.334;13.512;2022-11-20T15:21:54;0.10;99.90
10828;DHT22;5467;59.334;13.512;2022-11-20T15:24:23;0.20;99.90
10828;DHT22;5467;59.334;13.512;2022-11-20T15:26:50;0.20;99.90
10828;DHT22;5467;59.334;13.512;2022-11-20T15:29:26;0.20;99.90
10828;DHT22;5467;59.334;13.512;2022-11-20T15:31:53;0.10;99.90
10828;DHT22;5467;59.334;13.512;2022-11-20T15:34:20;0.20;99.90
10828;DHT22;5467;59.334;13.512;2022-11-20T15:36:47;0.10;99.90
10828;DHT22;5467;59.334;13.512;2022-11-20T15:39:14;0.20;99.90
10828;DHT22;5467;59.334;13.512;2022-11-20T15:41:41;0.10;99.90
10828;DHT22;5467;59.334;13.512;2022-11-20T15:44:07;0.10;99.90
10828;DHT22;5467;59.334;13.512;2022-11-20T15:46:38;0.10;99.90
10828;DHT22;5467;59.334;13.512;2022-11-20T15:49:11;0.00;99.90
10828;DHT22;5467;59.334;13.512;2022-11-20T15:51:41;0.10;99.90
10828;DHT22;5467;59.334;13.512;2022-11-20T15:54:10;0.10;99.90
10828;DHT22;5467;59.334;13.512;2022-11-20T15:56:38;0.20;99.90
10828;DHT22;5467;59.334;13.512;2022-11-20T15:59:05;0.00;99.90
10828;DHT22;5467;59.334;13.512;2022-11-20T16:01:32;0.00;99.90
10828;DHT22;5467;59.334;13.512;2022-11-20T16:04:01;-0.10;99.90
10828;DHT22;5467;59.334;13.512;2022-11-20T16:06:28;0.00;99.90
10828;DHT22;5467;59.334;13.512;2022-11-20T16:08:55;-0.10;99.90
10828;DHT22;5467;59.334;13.512;2022-11-20T16:11:21;-0.10;99.90
10828;DHT22;5467;59.334;13.512;2022-11-20T16:13:48;-0.10;99.90
10828;DHT22;5467;59.334;13.512;2022-11-20T16:16:34;-0.20;99.90
10828;DHT22;5467;59.334;13.512;2022-11-20T16:19:03;-0.20;99.90